createdAt,value
2022-09-14T00:00:11.839Z,1.60
2022-09-14T00:02:38.559Z,1.70
2022-09-14T00:05:05.327Z,1.92
2022-09-14T00:07:31.873Z,1.89
2022-09-14T00:09:58.753Z,1.74
2022-09-14T00:12:25.303Z,1.74
2022-09-14T00:14:51.926Z,1.63
2022-09-14T00:17:18.905Z,1.78
2022-09-14T00:19:45.528Z,1.81
2022-09-14T00:22:12.142Z,1.69
2022-09-14T00:24:38.780Z,1.61
2022-09-14T00:27:05.462Z,1.67
2022-09-14T00:29:33.399Z,1.56
2022-09-14T00:32:00.103Z,1.54
2022-09-14T00:34:27.834Z,1.62
2022-09-14T00:36:54.629Z,1.64
2022-09-14T00:39:23.671Z,1.66
2022-09-14T00:41:51.827Z,2.04
2022-09-14T00:44:18.521Z,1.55
2022-09-14T00:46:47.158Z,1.66
2022-09-14T00:49:31.059Z,1.74
2022-09-14T00:52:09.805Z,1.60
2022-09-14T00:54:42.054Z,1.43
2022-09-14T00:57:08.828Z,1.46
2022-09-14T00:59:38.250Z,1.49
2022-09-14T01:02:07.526Z,1.60
2022-09-14T01:04:34.055Z,1.37
2022-09-14T01:07:00.552Z,1.64
2022-09-14T01:09:33.129Z,1.66
2022-09-14T01:12:32.200Z,1.52
2022-09-14T01:15:11.214Z,1.49
2022-09-14T01:17:37.723Z,1.42
2022-09-14T01:20:20.605Z,1.44
2022-09-14T01:22:59.127Z,1.65
2022-09-14T01:25:42.720Z,1.49
2022-09-14T01:28:14.576Z,1.32
2022-09-14T01:30:43.472Z,1.45
2022-09-14T01:33:16.366Z,1.44
2022-09-14T01:35:57.471Z,1.39
2022-09-14T01:38:30.017Z,1.47
2022-09-14T01:40:59.338Z,1.64
2022-09-14T01:43:30.176Z,1.70
2022-09-14T01:46:00.994Z,1.66
2022-09-14T01:48:34.037Z,1.57
2022-09-14T01:51:05.815Z,1.76
2022-09-14T01:53:39.922Z,1.46
2022-09-14T01:56:09.578Z,1.53
2022-09-14T01:58:40.940Z,1.48
2022-09-14T02:01:09.925Z,1.60
2022-09-14T02:03:58.792Z,1.64
2022-09-14T02:06:38.693Z,1.53
2022-09-14T02:09:07.529Z,1.65
2022-09-14T02:11:34.052Z,1.59
2022-09-14T02:14:00.804Z,1.66
2022-09-14T02:16:27.862Z,1.52
2022-09-14T02:18:55.044Z,1.63
2022-09-14T02:21:25.440Z,1.44
2022-09-14T02:23:52.184Z,1.45
2022-09-14T02:26:20.222Z,1.33
2022-09-14T02:28:47.254Z,1.34
2022-09-14T02:31:17.019Z,1.59
2022-09-14T02:34:07.876Z,1.56
2022-09-14T02:36:46.929Z,1.43
2022-09-14T02:39:16.670Z,1.62
2022-09-14T02:41:55.889Z,1.59
2022-09-14T02:44:28.735Z,1.75
2022-09-14T02:47:01.611Z,1.78
2022-09-14T02:49:42.810Z,1.59
2022-09-14T02:52:16.839Z,1.49
2022-09-14T02:54:50.742Z,1.48
2022-09-14T02:57:17.721Z,1.65
2022-09-14T02:59:44.305Z,1.52
2022-09-14T03:02:10.988Z,1.71
2022-09-14T03:04:37.654Z,1.75
2022-09-14T03:07:04.318Z,1.85
2022-09-14T03:09:30.966Z,1.83
2022-09-14T03:11:57.513Z,2.22
2022-09-14T03:14:24.031Z,2.09
2022-09-14T03:16:50.622Z,2.00
2022-09-14T03:19:17.674Z,1.95
2022-09-14T03:21:44.281Z,1.85
2022-09-14T03:24:11.140Z,2.15
2022-09-14T03:26:38.708Z,2.07
2022-09-14T03:29:06.727Z,1.94
2022-09-14T03:31:34.294Z,1.89
2022-09-14T03:34:02.339Z,1.73
2022-09-14T03:36:30.081Z,1.61
2022-09-14T03:38:58.247Z,1.77
2022-09-14T03:41:25.665Z,1.69
2022-09-14T03:43:52.446Z,1.73
2022-09-14T03:46:21.571Z,1.84
2022-09-14T03:48:48.764Z,1.84
2022-09-14T03:51:15.590Z,1.68
2022-09-14T03:53:43.321Z,1.76
2022-09-14T03:56:10.894Z,1.90
2022-09-14T03:58:37.669Z,1.71
2022-09-14T04:01:12.494Z,1.77
2022-09-14T04:03:39.051Z,1.62
2022-09-14T04:06:06.351Z,1.59
2022-09-14T04:08:35.036Z,1.76
2022-09-14T04:11:07.932Z,1.86
2022-09-14T04:13:34.664Z,2.03
2022-09-14T04:16:02.020Z,1.83
2022-09-14T04:18:28.997Z,1.72
2022-09-14T04:21:03.352Z,1.75
2022-09-14T04:23:32.691Z,1.72
2022-09-14T04:26:00.063Z,1.64
2022-09-14T04:28:26.888Z,1.63
2022-09-14T04:30:57.909Z,1.67
2022-09-14T04:33:25.179Z,1.75
2022-09-14T04:35:59.226Z,1.88
2022-09-14T04:38:25.845Z,1.87
2022-09-14T04:40:52.496Z,1.75
2022-09-14T04:43:19.151Z,1.79
2022-09-14T04:45:45.724Z,1.87
2022-09-14T04:48:12.413Z,1.73
2022-09-14T04:50:39.034Z,1.57
2022-09-14T04:53:05.548Z,1.86
2022-09-14T04:55:32.184Z,1.83
2022-09-14T04:57:58.716Z,1.85
2022-09-14T05:00:25.356Z,1.90
2022-09-14T05:02:52.448Z,1.77
2022-09-14T05:05:19.045Z,1.72
2022-09-14T05:07:46.893Z,1.86
2022-09-14T05:10:13.422Z,1.80
2022-09-14T05:12:40.092Z,1.93
2022-09-14T05:15:07.213Z,1.85
2022-09-14T05:17:34.371Z,1.85
2022-09-14T05:20:00.918Z,2.14
2022-09-14T05:22:27.493Z,2.01
2022-09-14T05:24:54.065Z,2.13
2022-09-14T05:27:20.641Z,2.02
2022-09-14T05:29:47.604Z,2.16
2022-09-14T05:32:14.201Z,1.95
2022-09-14T05:34:40.831Z,1.99
2022-09-14T05:37:07.364Z,2.03
2022-09-14T05:39:33.937Z,2.01
2022-09-14T05:42:00.641Z,1.88
2022-09-14T05:44:27.264Z,1.93
2022-09-14T05:46:54.075Z,2.01
2022-09-14T05:49:20.783Z,2.20
2022-09-14T05:51:47.741Z,2.30
2022-09-14T05:54:14.396Z,2.06
2022-09-14T05:56:40.898Z,2.27
2022-09-14T05:59:07.566Z,2.21
2022-09-14T06:01:34.253Z,2.19
2022-09-14T06:04:04.583Z,2.46
2022-09-14T06:06:32.281Z,2.22
2022-09-14T06:08:59.029Z,2.24
2022-09-14T06:11:28.520Z,2.38
2022-09-14T06:13:56.041Z,2.13
2022-09-14T06:16:23.656Z,2.54
2022-09-14T06:18:50.623Z,2.28
2022-09-14T06:21:19.958Z,2.33
2022-09-14T06:23:48.011Z,2.08
2022-09-14T06:26:15.294Z,2.19
2022-09-14T06:28:42.037Z,2.17
2022-09-14T06:31:11.731Z,2.10
2022-09-14T06:33:38.259Z,2.53
2022-09-14T06:36:09.297Z,2.24
2022-09-14T06:38:35.958Z,2.38
2022-09-14T06:41:04.663Z,3.43
2022-09-14T06:43:32.892Z,2.65
2022-09-14T06:46:00.794Z,13.21
2022-09-14T06:48:31.095Z,8.51
2022-09-14T06:50:58.122Z,2.91
2022-09-14T06:53:24.800Z,2.87
2022-09-14T06:55:52.536Z,2.78
2022-09-14T06:58:19.169Z,2.61
2022-09-14T07:00:45.689Z,2.27
2022-09-14T07:03:12.311Z,2.31
2022-09-14T07:05:38.913Z,2.26
2022-09-14T07:08:07.981Z,2.22
2022-09-14T07:10:38.618Z,2.14
2022-09-14T07:13:05.227Z,1.75
2022-09-14T07:15:31.960Z,1.88
2022-09-14T07:17:59.027Z,2.02
2022-09-14T07:20:25.685Z,1.89
2022-09-14T07:22:52.240Z,1.98
2022-09-14T07:25:18.830Z,2.12
2022-09-14T07:27:45.604Z,1.96
2022-09-14T07:30:12.885Z,2.11
2022-09-14T07:32:39.452Z,2.21
2022-09-14T07:35:06.508Z,2.27
2022-09-14T07:37:33.137Z,1.73
2022-09-14T07:40:00.296Z,2.00
2022-09-14T07:42:26.913Z,1.63
2022-09-14T07:44:53.565Z,1.57
2022-09-14T07:47:20.122Z,1.80
2022-09-14T07:49:46.848Z,1.59
2022-09-14T07:52:13.483Z,1.74
2022-09-14T07:54:40.135Z,1.71
2022-09-14T07:57:07.009Z,1.68
2022-09-14T07:59:36.903Z,1.87
2022-09-14T08:02:08.428Z,1.64
2022-09-14T08:04:36.101Z,1.86
2022-09-14T08:07:03.553Z,2.00
2022-09-14T08:09:30.175Z,1.99
2022-09-14T08:11:57.327Z,1.83
2022-09-14T08:14:24.297Z,2.04
2022-09-14T08:16:51.110Z,2.39
2022-09-14T08:19:21.010Z,1.96
2022-09-14T08:21:48.189Z,2.11
2022-09-14T08:24:21.105Z,2.50
2022-09-14T08:26:48.717Z,2.60
2022-09-14T08:29:16.523Z,2.35
2022-09-14T08:31:45.453Z,2.18
2022-09-14T08:34:12.760Z,2.32
2022-09-14T08:36:41.027Z,2.49
2022-09-14T08:39:09.580Z,2.75
2022-09-14T08:41:36.246Z,2.72
2022-09-14T08:44:13.140Z,2.63
2022-09-14T08:46:44.402Z,2.21
2022-09-14T08:49:36.784Z,2.70
2022-09-14T08:52:04.456Z,2.44
2022-09-14T08:54:33.246Z,2.62
2022-09-14T08:57:08.191Z,2.56
2022-09-14T08:59:53.786Z,2.56
2022-09-14T09:02:26.638Z,2.10
2022-09-14T09:05:12.234Z,2.62
2022-09-14T09:07:45.473Z,2.42
2022-09-14T09:10:13.821Z,2.06
2022-09-14T09:12:54.079Z,2.41
2022-09-14T09:15:26.446Z,2.83
2022-09-14T09:18:16.642Z,2.23
2022-09-14T09:20:47.483Z,3.07
2022-09-14T09:23:18.879Z,2.50
2022-09-14T09:26:03.904Z,2.43
2022-09-14T09:28:31.056Z,2.37
2022-09-14T09:31:05.114Z,2.40
2022-09-14T09:33:32.261Z,2.32
2022-09-14T09:35:59.718Z,2.17
2022-09-14T09:38:28.734Z,2.41
2022-09-14T09:40:58.791Z,3.04
2022-09-14T09:43:47.821Z,2.67
2022-09-14T09:46:12.784Z,2.28
2022-09-14T09:48:44.260Z,2.77
2022-09-14T09:51:31.358Z,2.39
2022-09-14T09:54:03.930Z,2.54
2022-09-14T09:56:36.864Z,3.06
2022-09-14T09:59:04.711Z,2.36
2022-09-14T10:01:33.190Z,2.28
2022-09-14T10:04:05.764Z,2.10
2022-09-14T10:06:40.790Z,2.14
2022-09-14T10:09:13.054Z,2.36
2022-09-14T10:11:39.686Z,2.51
2022-09-14T10:14:20.475Z,2.44
2022-09-14T10:16:47.635Z,2.80
2022-09-14T10:19:16.080Z,2.51
2022-09-14T10:22:01.770Z,2.61
2022-09-14T10:24:29.129Z,2.71
2022-09-14T10:26:55.869Z,2.94
2022-09-14T10:29:41.173Z,3.37
2022-09-14T10:32:28.132Z,3.59
2022-09-14T10:34:54.769Z,2.70
2022-09-14T10:37:28.386Z,2.29
2022-09-14T10:40:14.188Z,2.93
2022-09-14T10:42:46.906Z,2.31
2022-09-14T10:45:28.426Z,2.82
2022-09-14T10:48:07.183Z,2.21
2022-09-14T10:50:42.246Z,2.34
2022-09-14T10:53:08.929Z,2.02
2022-09-14T10:56:01.211Z,1.58
2022-09-14T10:58:38.786Z,1.94
2022-09-14T11:01:25.569Z,2.06
2022-09-14T11:04:07.421Z,1.89
2022-09-14T11:06:33.994Z,1.99
2022-09-14T11:09:14.857Z,2.10
2022-09-14T11:11:53.575Z,2.46
2022-09-14T11:14:46.579Z,2.09
2022-09-14T11:17:13.379Z,2.62
2022-09-14T11:19:48.401Z,2.15
2022-09-14T11:22:33.721Z,2.31
2022-09-14T11:25:13.635Z,2.06
2022-09-14T11:27:48.108Z,1.99
2022-09-14T11:30:22.628Z,1.88
2022-09-14T11:32:55.936Z,2.32
2022-09-14T11:35:26.197Z,2.10
2022-09-14T11:37:59.482Z,1.97
2022-09-14T11:40:29.199Z,2.22
2022-09-14T11:43:00.971Z,2.12
2022-09-14T11:45:27.696Z,1.87
2022-09-14T11:48:12.436Z,2.21
2022-09-14T11:50:56.943Z,1.85
2022-09-14T11:53:25.908Z,1.98
2022-09-14T11:55:52.643Z,1.75
2022-09-14T11:58:29.662Z,1.55
2022-09-14T12:01:00.262Z,1.50
2022-09-14T12:03:49.714Z,1.74
2022-09-14T12:06:30.587Z,2.21
2022-09-14T12:09:24.240Z,2.04
2022-09-14T12:11:53.518Z,1.93
2022-09-14T12:14:30.345Z,1.80
2022-09-14T12:17:13.060Z,1.74
2022-09-14T12:19:52.407Z,1.75
2022-09-14T12:22:38.440Z,1.87
2022-09-14T12:25:23.156Z,2.11
2022-09-14T12:27:50.522Z,1.74
2022-09-14T12:30:39.907Z,1.83
2022-09-14T12:33:27.400Z,1.93
2022-09-14T12:35:54.133Z,1.96
2022-09-14T12:38:29.918Z,2.11
2022-09-14T12:41:01.479Z,2.09
2022-09-14T12:43:34.175Z,2.15
2022-09-14T12:46:03.593Z,1.98
2022-09-14T12:48:48.572Z,2.16
2022-09-14T12:51:27.043Z,2.09
2022-09-14T12:54:09.047Z,1.83
2022-09-14T12:56:54.285Z,2.08
2022-09-14T12:59:39.657Z,1.98
2022-09-14T13:02:12.543Z,2.07
2022-09-14T13:04:41.860Z,1.82
2022-09-14T13:07:16.672Z,1.88
2022-09-14T13:09:48.648Z,1.91
2022-09-14T13:12:23.972Z,1.66
2022-09-14T13:14:56.477Z,2.04
2022-09-14T13:17:24.151Z,1.58
2022-09-14T13:19:56.273Z,1.54
2022-09-14T13:22:25.458Z,1.75
2022-09-14T13:24:53.077Z,2.08
2022-09-14T13:27:28.573Z,1.90
2022-09-14T13:30:04.572Z,1.87
2022-09-14T13:32:34.651Z,1.60
2022-09-14T13:35:04.784Z,1.76
2022-09-14T13:37:31.703Z,1.69
2022-09-14T13:39:59.734Z,1.86
2022-09-14T13:42:27.426Z,2.16
2022-09-14T13:44:54.314Z,2.23
2022-09-14T13:47:22.890Z,2.39
2022-09-14T13:49:50.944Z,2.05
2022-09-14T13:52:33.956Z,2.00
2022-09-14T13:55:19.032Z,1.51
2022-09-14T13:58:05.586Z,1.58
2022-09-14T14:00:34.007Z,1.66
2022-09-14T14:03:02.684Z,1.49
2022-09-14T14:05:31.287Z,1.62
2022-09-14T14:07:59.467Z,1.74
2022-09-14T14:10:32.643Z,1.95
2022-09-14T14:13:03.011Z,1.86
2022-09-14T14:15:29.817Z,1.63
2022-09-14T14:17:56.297Z,1.51
2022-09-14T14:20:35.151Z,1.87
2022-09-14T14:23:10.893Z,1.52
2022-09-14T14:25:46.112Z,1.62
2022-09-14T14:28:17.939Z,1.25
2022-09-14T14:30:45.085Z,1.24
2022-09-14T14:33:18.703Z,1.41
2022-09-14T14:35:50.416Z,1.41
2022-09-14T14:38:18.431Z,1.49
2022-09-14T14:40:46.800Z,1.88
2022-09-14T14:43:26.315Z,1.86
2022-09-14T14:45:55.712Z,1.60
2022-09-14T14:48:23.574Z,1.74
2022-09-14T14:50:50.133Z,1.73
2022-09-14T14:53:16.745Z,2.04
2022-09-14T14:55:43.419Z,2.17
2022-09-14T14:58:17.284Z,1.98
2022-09-14T15:00:43.834Z,2.00
2022-09-14T15:03:10.738Z,2.10
2022-09-14T15:05:41.549Z,1.91
2022-09-14T15:08:09.574Z,2.07
2022-09-14T15:10:36.262Z,1.89
2022-09-14T15:13:02.852Z,1.59
2022-09-14T15:15:29.848Z,1.78
2022-09-14T15:17:56.381Z,1.74
2022-09-14T15:20:23.081Z,1.58
2022-09-14T15:22:50.029Z,1.87
2022-09-14T15:25:18.130Z,1.80
2022-09-14T15:27:45.036Z,1.61
2022-09-14T15:30:12.374Z,1.67
2022-09-14T15:32:39.110Z,1.60
2022-09-14T15:35:06.066Z,1.58
2022-09-14T15:37:32.688Z,1.60
2022-09-14T15:39:59.406Z,1.45
2022-09-14T15:42:27.149Z,1.64
2022-09-14T15:44:53.874Z,1.28
2022-09-14T15:47:20.481Z,1.53
2022-09-14T15:49:50.892Z,1.46
2022-09-14T15:52:17.990Z,1.85
2022-09-14T15:54:44.828Z,1.37
2022-09-14T15:57:12.038Z,1.60
2022-09-14T15:59:39.634Z,1.60
2022-09-14T16:02:07.021Z,1.64
2022-09-14T16:04:38.241Z,1.58
2022-09-14T16:07:09.606Z,1.46
2022-09-14T16:09:37.473Z,1.68
2022-09-14T16:12:04.416Z,1.78
2022-09-14T16:14:31.005Z,1.48
2022-09-14T16:16:59.011Z,1.41
2022-09-14T16:19:25.892Z,1.45
2022-09-14T16:21:53.806Z,1.65
2022-09-14T16:24:21.629Z,1.74
2022-09-14T16:26:48.172Z,1.64
2022-09-14T16:29:15.780Z,1.51
2022-09-14T16:31:43.349Z,1.80
2022-09-14T16:34:17.572Z,1.67
2022-09-14T16:36:44.498Z,1.52
2022-09-14T16:39:13.142Z,1.38
2022-09-14T16:41:41.784Z,1.72
2022-09-14T16:44:12.249Z,1.55
2022-09-14T16:46:39.047Z,1.48
2022-09-14T16:49:06.479Z,1.62
2022-09-14T16:51:33.814Z,1.38
2022-09-14T16:54:00.512Z,1.24
2022-09-14T16:56:29.558Z,1.28
2022-09-14T16:58:57.084Z,1.15
2022-09-14T17:01:25.966Z,1.25
2022-09-14T17:03:53.866Z,1.05
2022-09-14T17:06:26.140Z,1.08
2022-09-14T17:08:54.866Z,1.06
2022-09-14T17:11:21.395Z,1.08
2022-09-14T17:13:48.102Z,1.26
2022-09-14T17:16:19.774Z,1.18
2022-09-14T17:18:48.848Z,1.09
2022-09-14T17:21:17.452Z,1.23
2022-09-14T17:23:44.346Z,1.11
2022-09-14T17:26:12.626Z,1.32
2022-09-14T17:28:39.603Z,1.21
2022-09-14T17:31:08.100Z,1.14
2022-09-14T17:33:35.833Z,1.28
2022-09-14T17:36:04.174Z,1.17
2022-09-14T17:38:33.397Z,1.57
2022-09-14T17:41:10.738Z,1.78
2022-09-14T17:43:38.260Z,1.38
2022-09-14T17:46:06.370Z,1.48
2022-09-14T17:48:34.612Z,1.60
2022-09-14T17:51:05.421Z,1.52
2022-09-14T17:53:32.160Z,1.38
2022-09-14T17:56:02.725Z,1.16
2022-09-14T17:58:29.423Z,1.33
2022-09-14T18:01:05.297Z,1.05
2022-09-14T18:03:31.925Z,1.12
2022-09-14T18:05:58.573Z,0.94
2022-09-14T18:08:25.303Z,1.02
2022-09-14T18:10:51.950Z,0.88
2022-09-14T18:13:18.739Z,0.99
2022-09-14T18:15:45.567Z,0.86
2022-09-14T18:18:12.177Z,1.08
2022-09-14T18:20:39.129Z,1.09
2022-09-14T18:23:05.844Z,1.03
2022-09-14T18:25:32.714Z,1.11
2022-09-14T18:27:59.314Z,0.96
2022-09-14T18:30:25.955Z,1.16
2022-09-14T18:32:52.912Z,0.90
2022-09-14T18:35:19.502Z,0.87
2022-09-14T18:37:46.088Z,1.08
2022-09-14T18:40:13.366Z,0.96
2022-09-14T18:42:41.987Z,0.86
2022-09-14T18:45:08.785Z,1.04
2022-09-14T18:47:35.378Z,1.27
2022-09-14T18:50:01.983Z,1.36
2022-09-14T18:52:28.559Z,1.42
2022-09-14T18:54:55.043Z,1.02
2022-09-14T18:57:22.335Z,1.28
2022-09-14T18:59:49.414Z,1.03
2022-09-14T19:02:16.121Z,1.25
2022-09-14T19:04:43.258Z,1.22
2022-09-14T19:07:09.912Z,1.41
2022-09-14T19:09:36.479Z,1.18
2022-09-14T19:12:03.128Z,1.20
2022-09-14T19:14:29.763Z,1.29
2022-09-14T19:16:58.406Z,1.24
2022-09-14T19:19:26.333Z,1.40
2022-09-14T19:21:54.103Z,1.24
2022-09-14T19:24:20.849Z,1.14
2022-09-14T19:26:49.680Z,1.25
2022-09-14T19:29:19.909Z,1.17
2022-09-14T19:31:51.053Z,1.16
2022-09-14T19:34:22.108Z,0.94
2022-09-14T19:36:49.286Z,1.19
2022-09-14T19:39:16.528Z,1.05
2022-09-14T19:41:43.075Z,1.20
2022-09-14T19:44:10.772Z,1.46
2022-09-14T19:46:39.563Z,1.21
2022-09-14T19:49:08.073Z,1.23
2022-09-14T19:51:35.731Z,1.35
2022-09-14T19:54:02.298Z,1.32
2022-09-14T19:56:29.816Z,1.38
2022-09-14T19:58:58.095Z,1.45
2022-09-14T20:01:26.309Z,1.40
2022-09-14T20:03:53.896Z,1.52
2022-09-14T20:06:26.084Z,1.66
2022-09-14T20:08:54.610Z,1.38
2022-09-14T20:11:23.546Z,1.39
2022-09-14T20:13:50.192Z,1.55
2022-09-14T20:16:18.533Z,1.38
2022-09-14T20:18:46.258Z,1.36
2022-09-14T20:21:16.948Z,1.64
2022-09-14T20:24:04.394Z,1.42
2022-09-14T20:26:30.306Z,1.51
2022-09-14T20:28:57.949Z,1.52
2022-09-14T20:31:24.641Z,1.47
2022-09-14T20:33:51.373Z,1.15
2022-09-14T20:36:19.487Z,1.32
2022-09-14T20:38:51.734Z,1.26
2022-09-14T20:41:18.751Z,1.39
2022-09-14T20:43:49.200Z,1.46
2022-09-14T20:46:20.127Z,1.43
2022-09-14T20:48:48.014Z,1.68
2022-09-14T20:51:19.941Z,1.57
2022-09-14T20:53:48.011Z,1.62
2022-09-14T20:56:16.074Z,1.62
2022-09-14T20:58:43.508Z,1.53
2022-09-14T21:01:17.790Z,1.66
2022-09-14T21:03:45.952Z,1.55
2022-09-14T21:06:15.185Z,1.82
2022-09-14T21:08:42.711Z,1.88
2022-09-14T21:11:11.149Z,1.88
2022-09-14T21:13:38.398Z,1.79
2022-09-14T21:16:08.154Z,1.86
2022-09-14T21:18:34.916Z,1.97
2022-09-14T21:21:08.635Z,2.30
2022-09-14T21:23:35.776Z,2.50
2022-09-14T21:26:03.445Z,2.53
2022-09-14T21:28:31.336Z,2.28
2022-09-14T21:31:10.461Z,2.32
2022-09-14T21:33:38.418Z,2.34
2022-09-14T21:36:10.272Z,2.44
2022-09-14T21:38:37.650Z,2.22
2022-09-14T21:41:08.892Z,2.29
2022-09-14T21:43:39.431Z,2.39
2022-09-14T21:46:07.130Z,2.49
2022-09-14T21:48:33.789Z,2.73
2022-09-14T21:51:21.063Z,2.80
2022-09-14T21:53:49.012Z,3.45
2022-09-14T21:56:16.700Z,4.16
2022-09-14T21:58:44.124Z,2.91
2022-09-14T22:01:11.934Z,2.66
2022-09-14T22:03:39.120Z,2.63
2022-09-14T22:06:08.015Z,2.50
2022-09-14T22:08:35.765Z,2.45
2022-09-14T22:11:04.247Z,2.46
2022-09-14T22:13:31.331Z,2.19
2022-09-14T22:15:57.999Z,2.08
2022-09-14T22:18:24.893Z,1.69
2022-09-14T22:20:58.918Z,1.81
2022-09-14T22:23:25.571Z,1.61
2022-09-14T22:25:52.831Z,1.77
2022-09-14T22:28:20.464Z,1.58
2022-09-14T22:30:48.440Z,1.68
2022-09-14T22:33:15.580Z,1.55
2022-09-14T22:35:50.695Z,1.58
2022-09-14T22:38:17.453Z,1.56
2022-09-14T22:40:43.968Z,1.47
2022-09-14T22:43:10.504Z,1.60
2022-09-14T22:45:37.883Z,1.56
2022-09-14T22:48:04.613Z,1.47
2022-09-14T22:50:31.247Z,1.44
2022-09-14T22:52:57.831Z,1.28
2022-09-14T22:55:25.700Z,1.36
2022-09-14T22:57:52.223Z,1.62
2022-09-14T23:00:19.031Z,1.52
2022-09-14T23:02:45.634Z,1.60
2022-09-14T23:05:12.276Z,1.38
2022-09-14T23:07:39.056Z,1.52
2022-09-14T23:10:05.755Z,1.49
2022-09-14T23:12:32.619Z,1.48
2022-09-14T23:14:59.170Z,1.48
2022-09-14T23:17:25.792Z,1.48
2022-09-14T23:19:52.365Z,1.52
2022-09-14T23:22:19.061Z,1.56
2022-09-14T23:24:45.905Z,1.46
2022-09-14T23:27:12.787Z,1.50
2022-09-14T23:29:39.595Z,1.70
2022-09-14T23:32:06.146Z,1.61
2022-09-14T23:34:32.774Z,1.68
2022-09-14T23:36:59.417Z,1.79
2022-09-14T23:39:26.019Z,1.43
2022-09-14T23:41:52.588Z,1.60
2022-09-14T23:44:19.238Z,1.82
2022-09-14T23:46:45.763Z,1.80
2022-09-14T23:49:12.916Z,1.56
2022-09-14T23:51:39.863Z,1.72
2022-09-14T23:54:08.224Z,1.91
2022-09-14T23:56:35.161Z,1.90
2022-09-14T23:59:01.683Z,1.66
